Time,TemperatureF,DewpointF,PressureIn,WindDirection,WindDirectionDegrees,WindSpeedMPH,WindSpeedGustMPH,Humidity,HourlyPrecipIn,Conditions,Clouds,dailyrainin,SoftwareType,DateUTC
2013-09-09 00:03:00,61.4,41.0,29.92,ESE,120,0.0,0.0,47,0.00,,,0.00,weatherlink.com 1.10,2013-09-09 07:03:00,
2013-09-09 00:18:00,58.7,41.0,29.92,ESE,117,0.0,0.0,52,0.00,,,0.00,weatherlink.com 1.10,2013-09-09 07:18:00,
2013-09-09 00:33:00,59.3,40.0,29.93,ESE,117,0.0,0.0,50,0.00,,,0.00,weatherlink.com 1.10,2013-09-09 07:33:00,
2013-09-09 00:48:00,58.0,41.0,29.92,ESE,104,0.0,0.0,54,0.00,,,0.00,weatherlink.com 1.10,2013-09-09 07:48:00,
2013-09-09 01:03:00,60.0,42.0,29.92,ESE,118,0.0,0.0,51,0.00,,,0.00,weatherlink.com 1.10,2013-09-09 08:03:00,
2013-09-09 01:18:00,61.3,42.0,29.92,ESE,119,0.0,0.0,49,0.00,,,0.00,weatherlink.com 1.10,2013-09-09 08:18:00,
2013-09-09 01:33:00,61.3,41.0,29.92,ESE,118,0.0,0.0,48,0.00,,,0.00,weatherlink.com 1.10,2013-09-09 08:33:00,
2013-09-09 01:48:00,60.8,42.0,29.92,ESE,119,0.0,0.0,50,0.00,,,0.00,weatherlink.com 1.10,2013-09-09 08:48:00,
2013-09-09 02:03:00,61.5,43.0,29.91,ESE,119,0.0,0.0,50,0.00,,,0.00,weatherlink.com 1.10,2013-09-09 09:03:00,
2013-09-09 02:18:00,61.8,43.0,29.92,ESE,118,0.0,0.0,51,0.00,,,0.00,weatherlink.com 1.10,2013-09-09 09:18:00,
2013-09-09 02:33:00,61.5,44.0,29.92,ESE,119,0.0,0.0,53,0.00,,,0.00,weatherlink.com 1.10,2013-09-09 09:33:00,
2013-09-09 02:48:00,59.6,43.0,29.91,ESE,120,0.0,0.0,54,0.00,,,0.00,weatherlink.com 1.10,2013-09-09 09:48:00,
2013-09-09 03:03:00,59.2,43.0,29.91,ESE,120,0.0,0.0,55,0.00,,,0.00,weatherlink.com 1.10,2013-09-09 10:03:00,
2013-09-09 03:19:00,58.1,43.0,29.91,ESE,119,0.0,0.0,57,0.00,,,0.00,weatherlink.com 1.10,2013-09-09 10:19:00,
2013-09-09 03:34:00,56.9,42.0,29.90,SE,139,0.0,0.0,58,0.00,,,0.00,weatherlink.com 1.10,2013-09-09 10:34:00,
2013-09-09 03:49:00,56.7,43.0,29.90,ESE,108,0.0,0.0,60,0.00,,,0.00,weatherlink.com 1.10,2013-09-09 10:49:00,
2013-09-09 04:04:00,56.8,43.0,29.90,ESE,108,0.0,1.0,60,0.00,,,0.00,weatherlink.com 1.10,2013-09-09 11:04:00,
2013-09-09 04:19:00,57.1,43.0,29.90,ESE,108,0.0,0.0,60,0.00,,,0.00,weatherlink.com 1.10,2013-09-09 11:19:00,
2013-09-09 04:34:00,57.0,43.0,29.90,SE,139,0.0,0.0,61,0.00,,,0.00,weatherlink.com 1.10,2013-09-09 11:34:00,
2013-09-09 04:49:00,56.4,43.0,29.90,ESE,117,0.0,0.0,61,0.00,,,0.00,weatherlink.com 1.10,2013-09-09 11:49:00,
2013-09-09 05:04:00,56.7,43.0,29.91,SE,125,0.0,0.0,61,0.00,,,0.00,weatherlink.com 1.10,2013-09-09 12:04:00,
2013-09-09 05:19:00,56.5,43.0,29.91,SE,127,0.0,0.0,62,0.00,,,0.00,weatherlink.com 1.10,2013-09-09 12:19:00,
2013-09-09 05:34:00,55.9,43.0,29.90,East,84,0.0,0.0,63,0.00,,,0.00,weatherlink.com 1.10,2013-09-09 12:34:00,
2013-09-09 05:49:00,55.4,43.0,29.90,SSE,156,0.0,0.0,64,0.00,,,0.00,weatherlink.com 1.10,2013-09-09 12:49:00,
2013-09-09 06:04:00,56.6,44.0,29.89,SE,124,0.0,0.0,63,0.00,,,0.00,weatherlink.com 1.10,2013-09-09 13:04:00,
2013-09-09 06:19:00,57.4,44.0,29.89,SSE,149,0.0,1.0,61,0.00,,,0.00,weatherlink.com 1.10,2013-09-09 13:19:00,
2013-09-09 06:34:00,56.7,43.0,29.90,SSE,149,0.0,0.0,61,0.00,,,0.00,weatherlink.com 1.10,2013-09-09 13:34:00,
2013-09-09 06:49:00,56.5,44.0,29.90,South,179,0.0,0.0,63,0.00,,,0.00,weatherlink.com 1.10,2013-09-09 13:49:00,
2013-09-09 07:04:00,56.6,44.0,29.91,South,179,0.0,0.0,62,0.00,,,0.00,weatherlink.com 1.10,2013-09-09 14:04:00,
2013-09-09 07:19:00,56.6,44.0,29.91,SE,133,0.0,0.0,63,0.00,,,0.00,weatherlink.com 1.10,2013-09-09 14:19:00,
2013-09-09 07:34:00,56.2,44.0,29.90,SE,135,0.0,0.0,64,0.00,,,0.00,weatherlink.com 1.10,2013-09-09 14:34:00,
2013-09-09 07:49:00,58.2,45.0,29.91,SSE,165,0.0,2.0,61,0.00,,,0.00,weatherlink.com 1.10,2013-09-09 14:49:00,
2013-09-09 08:04:00,59.2,45.0,29.91,South,169,0.0,0.0,60,0.00,,,0.00,weatherlink.com 1.10,2013-09-09 15:04:00,
2013-09-09 08:19:00,60.8,45.0,29.91,South,188,0.0,0.0,57,0.00,,,0.00,weatherlink.com 1.10,2013-09-09 15:19:00,
2013-09-09 08:34:00,62.0,45.0,29.91,ESE,113,0.0,0.0,55,0.00,,,0.00,weatherlink.com 1.10,2013-09-09 15:34:00,
2013-09-09 08:49:00,65.0,47.0,29.91,SE,146,0.0,3.0,52,0.00,,,0.00,weatherlink.com 1.10,2013-09-09 15:49:00,
2013-09-09 09:04:00,66.6,47.0,29.91,SSE,167,0.0,3.0,49,0.00,,,0.00,weatherlink.com 1.10,2013-09-09 16:04:00,
2013-09-09 09:19:00,67.7,46.0,29.91,SSE,158,0.0,4.0,46,0.00,,,0.00,weatherlink.com 1.10,2013-09-09 16:19:00,
2013-09-09 09:34:00,68.4,47.0,29.91,SSE,149,0.0,2.0,46,0.00,,,0.00,weatherlink.com 1.10,2013-09-09 16:34:00,
2013-09-09 09:49:00,68.7,46.0,29.91,SE,137,0.0,4.0,45,0.00,,,0.00,weatherlink.com 1.10,2013-09-09 16:49:00,
2013-09-09 10:04:00,68.9,46.0,29.91,SSW,208,0.0,4.0,44,0.00,,,0.00,weatherlink.com 1.10,2013-09-09 17:04:00,
2013-09-09 10:19:00,69.7,46.0,29.90,ESE,114,0.0,4.0,43,0.00,,,0.00,weatherlink.com 1.10,2013-09-09 17:19:00,
2013-09-09 10:34:00,69.8,46.0,29.90,North,360,0.0,3.0,42,0.00,,,0.00,weatherlink.com 1.10,2013-09-09 17:34:00,
2013-09-09 10:49:00,70.4,45.0,29.89,WSW,239,0.0,2.0,41,0.00,,,0.00,weatherlink.com 1.10,2013-09-09 17:49:00,
2013-09-09 11:04:00,70.8,46.0,29.89,WNW,301,0.0,4.0,42,0.00,,,0.00,weatherlink.com 1.10,2013-09-09 18:04:00,
2013-09-09 11:19:00,71.1,46.0,29.89,NW,309,0.0,8.0,41,0.00,,,0.00,weatherlink.com 1.10,2013-09-09 18:19:00,
2013-09-09 11:34:00,71.6,46.0,29.89,WNW,290,0.0,7.0,40,0.00,,,0.00,weatherlink.com 1.10,2013-09-09 18:34:00,
2013-09-09 11:49:00,71.9,46.0,29.88,West,277,0.0,5.0,39,0.00,,,0.00,weatherlink.com 1.10,2013-09-09 18:49:00,
2013-09-09 12:05:00,72.8,45.0,29.88,WNW,284,0.0,4.0,37,0.00,,,0.00,weatherlink.com 1.10,2013-09-09 19:05:00,
2013-09-09 12:20:00,73.9,44.0,29.88,NNW,333,0.0,7.0,34,0.00,,,0.00,weatherlink.com 1.10,2013-09-09 19:20:00,
2013-09-09 12:35:00,74.3,42.0,29.87,NNW,341,0.0,9.0,31,0.00,,,0.00,weatherlink.com 1.10,2013-09-09 19:35:00,
2013-09-09 12:50:00,74.9,45.0,29.87,WNW,295,3.0,10.0,34,0.00,,,0.00,weatherlink.com 1.10,2013-09-09 19:50:00,
2013-09-09 13:05:00,74.9,44.0,29.86,WNW,290,3.0,6.0,33,0.00,,,0.00,weatherlink.com 1.10,2013-09-09 20:05:00,
2013-09-09 13:20:00,75.9,44.0,29.86,WSW,253,1.0,11.0,32,0.00,,,0.00,weatherlink.com 1.10,2013-09-09 20:20:00,
2013-09-09 13:35:00,76.5,44.0,29.85,NW,318,4.0,9.0,31,0.00,,,0.00,weatherlink.com 1.10,2013-09-09 20:35:00,
2013-09-09 13:50:00,77.1,43.0,29.85,NW,314,1.0,6.0,30,0.00,,,0.00,weatherlink.com 1.10,2013-09-09 20:50:00,
2013-09-09 14:05:00,77.7,43.0,29.84,NW,307,6.0,12.0,29,0.00,,,0.00,weatherlink.com 1.10,2013-09-09 21:05:00,
2013-09-09 14:20:00,79.4,41.0,29.84,North,360,0.0,8.0,25,0.00,,,0.00,weatherlink.com 1.10,2013-09-09 21:20:00,
2013-09-09 14:35:00,78.8,41.0,29.83,NW,322,6.0,15.0,26,0.00,,,0.00,weatherlink.com 1.10,2013-09-09 21:35:00,
2013-09-09 14:50:00,79.0,42.0,29.82,NW,309,5.0,12.0,27,0.00,,,0.00,weatherlink.com 1.10,2013-09-09 21:50:00,
2013-09-09 15:05:00,78.7,42.0,29.82,NW,325,2.0,10.0,27,0.00,,,0.00,weatherlink.com 1.10,2013-09-09 22:05:00,
2013-09-09 15:20:00,78.4,43.0,29.82,West,281,7.0,7.0,28,0.00,,,0.00,weatherlink.com 1.10,2013-09-09 22:20:00,
2013-09-09 15:35:00,79.3,42.0,29.81,WNW,291,0.0,7.0,27,0.00,,,0.00,weatherlink.com 1.10,2013-09-09 22:35:00,
2013-09-09 15:50:00,80.0,43.0,29.81,WNW,291,9.0,11.0,27,0.00,,,0.00,weatherlink.com 1.10,2013-09-09 22:50:00,
2013-09-09 16:05:00,80.1,43.0,29.81,NW,316,4.0,10.0,27,0.00,,,0.00,weatherlink.com 1.10,2013-09-09 23:05:00,
2013-09-09 16:20:00,79.6,43.0,29.81,WNW,295,3.0,11.0,27,0.00,,,0.00,weatherlink.com 1.10,2013-09-09 23:20:00,
2013-09-09 16:35:00,79.6,43.0,29.80,NNW,332,6.0,10.0,27,0.00,,,0.00,weatherlink.com 1.10,2013-09-09 23:35:00,
2013-09-09 16:50:00,79.4,43.0,29.80,NW,308,0.0,11.0,27,0.00,,,0.00,weatherlink.com 1.10,2013-09-09 23:50:00,
2013-09-09 17:05:00,79.7,43.0,29.80,NNW,329,0.0,11.0,27,0.00,,,0.00,weatherlink.com 1.10,2013-09-10 00:05:00,
2013-09-09 17:20:00,80.4,42.0,29.80,NW,318,4.0,7.0,26,0.00,,,0.00,weatherlink.com 1.10,2013-09-10 00:20:00,
2013-09-09 17:35:00,80.2,42.0,29.80,NNW,328,9.0,9.0,26,0.00,,,0.00,weatherlink.com 1.10,2013-09-10 00:35:00,
2013-09-09 17:50:00,79.6,43.0,29.79,North,5,4.0,8.0,27,0.00,,,0.00,weatherlink.com 1.10,2013-09-10 00:50:00,
2013-09-09 18:05:00,79.4,42.0,29.79,NW,326,0.0,10.0,26,0.00,,,0.00,weatherlink.com 1.10,2013-09-10 01:05:00,
2013-09-09 18:20:00,78.9,42.0,29.79,NNW,328,1.0,8.0,27,0.00,,,0.00,weatherlink.com 1.10,2013-09-10 01:20:00,
2013-09-09 18:35:00,78.8,42.0,29.79,NNW,333,0.0,7.0,27,0.00,,,0.00,weatherlink.com 1.10,2013-09-10 01:35:00,
2013-09-09 18:50:00,78.0,42.0,29.79,North,11,0.0,7.0,28,0.00,,,0.00,weatherlink.com 1.10,2013-09-10 01:50:00,
2013-09-09 19:05:00,77.0,42.0,29.79,North,349,0.0,6.0,29,0.00,,,0.00,weatherlink.com 1.10,2013-09-10 02:05:00,
2013-09-09 19:20:00,75.5,42.0,29.79,NW,311,0.0,1.0,30,0.00,,,0.00,weatherlink.com 1.10,2013-09-10 02:20:00,
2013-09-09 19:35:00,73.3,42.0,29.79,East,79,0.0,0.0,32,0.00,,,0.00,weatherlink.com 1.10,2013-09-10 02:35:00,
2013-09-09 19:50:00,71.6,42.0,29.79,East,101,0.0,1.0,34,0.00,,,0.00,weatherlink.com 1.10,2013-09-10 02:50:00,
2013-09-09 20:05:00,70.7,42.0,29.79,East,98,0.0,0.0,35,0.00,,,0.00,weatherlink.com 1.10,2013-09-10 03:05:00,
2013-09-09 20:20:00,70.6,42.0,29.80,East,79,0.0,3.0,35,0.00,,,0.00,weatherlink.com 1.10,2013-09-10 03:20:00,
2013-09-09 20:35:00,69.1,41.0,29.80,ESE,116,0.0,0.0,36,0.00,,,0.00,weatherlink.com 1.10,2013-09-10 03:35:00,
2013-09-09 20:50:00,68.9,41.0,29.80,East,95,0.0,0.0,37,0.00,,,0.00,weatherlink.com 1.10,2013-09-10 03:50:00,
2013-09-09 21:06:00,69.4,42.0,29.80,ENE,65,0.0,0.0,37,0.00,,,0.00,weatherlink.com 1.10,2013-09-10 04:06:00,
2013-09-09 21:21:00,69.0,42.0,29.80,NE,49,0.0,1.0,37,0.00,,,0.00,weatherlink.com 1.10,2013-09-10 04:21:00,
2013-09-09 21:36:00,68.2,41.0,29.80,East,97,0.0,1.0,38,0.00,,,0.00,weatherlink.com 1.10,2013-09-10 04:36:00,
2013-09-09 21:51:00,67.2,41.0,29.80,East,101,0.0,0.0,39,0.00,,,0.00,weatherlink.com 1.10,2013-09-10 04:51:00,
2013-09-09 22:06:00,65.8,41.0,29.80,SE,136,0.0,0.0,41,0.00,,,0.00,weatherlink.com 1.10,2013-09-10 05:06:00,
2013-09-09 22:21:00,66.4,41.0,29.80,ESE,120,0.0,0.0,40,0.00,,,0.00,weatherlink.com 1.10,2013-09-10 05:21:00,
2013-09-09 22:36:00,65.9,41.0,29.80,SE,127,0.0,0.0,41,0.00,,,0.00,weatherlink.com 1.10,2013-09-10 05:36:00,
2013-09-09 22:51:00,66.4,42.0,29.80,SE,134,0.0,0.0,41,0.00,,,0.00,weatherlink.com 1.10,2013-09-10 05:51:00,
2013-09-09 23:06:00,65.9,42.0,29.81,SE,134,0.0,0.0,42,0.00,,,0.00,weatherlink.com 1.10,2013-09-10 06:06:00,
2013-09-09 23:21:00,65.1,42.0,29.81,SE,134,0.0,0.0,43,0.00,,,0.00,weatherlink.com 1.10,2013-09-10 06:21:00,
2013-09-09 23:36:00,65.3,42.0,29.81,ESE,110,0.0,0.0,43,0.00,,,0.00,weatherlink.com 1.10,2013-09-10 06:36:00,
2013-09-09 23:51:00,66.4,42.0,29.80,East,101,0.0,0.0,41,0.00,,,0.00,weatherlink.com 1.10,2013-09-10 06:51:00,